createdAt,value
2017-10-26T00:01:49.007Z,3.60
2017-10-26T00:04:15.228Z,3.30
2017-10-26T00:06:42.221Z,2.97
2017-10-26T00:09:08.421Z,2.90
2017-10-26T00:11:35.346Z,3.23
2017-10-26T00:14:02.285Z,3.03
2017-10-26T00:16:28.469Z,3.60
2017-10-26T00:18:54.656Z,3.00
2017-10-26T00:21:21.757Z,3.80
2017-10-26T00:23:49.456Z,3.33
2017-10-26T00:26:15.697Z,3.40
2017-10-26T00:28:41.916Z,4.43
2017-10-26T00:31:08.101Z,3.43
2017-10-26T00:33:35.023Z,3.00
2017-10-26T00:36:01.960Z,4.57
2017-10-26T00:38:28.171Z,3.40
2017-10-26T00:40:54.372Z,3.37
2017-10-26T00:43:20.620Z,4.00
2017-10-26T00:45:46.810Z,4.40
2017-10-26T00:48:13.106Z,3.63
2017-10-26T00:50:39.357Z,3.97
2017-10-26T00:53:05.543Z,3.67
2017-10-26T00:55:32.450Z,3.40
2017-10-26T00:57:58.675Z,4.47
2017-10-26T01:00:24.853Z,4.23
2017-10-26T01:02:51.802Z,5.23
2017-10-26T01:05:18.734Z,6.30
2017-10-26T01:07:44.936Z,4.10
2017-10-26T01:10:11.158Z,5.07
2017-10-26T01:12:37.401Z,4.00
2017-10-26T01:15:03.646Z,4.70
2017-10-26T01:17:29.859Z,5.60
2017-10-26T01:19:56.065Z,4.60
2017-10-26T01:22:23.381Z,4.73
2017-10-26T01:24:51.098Z,5.77
2017-10-26T01:27:18.052Z,5.43
2017-10-26T01:29:44.975Z,5.33
2017-10-26T01:32:11.901Z,5.60
2017-10-26T01:34:38.097Z,4.87
2017-10-26T01:37:04.304Z,5.50
2017-10-26T01:39:30.533Z,5.20
2017-10-26T01:41:57.490Z,6.73
2017-10-26T01:44:24.432Z,5.07
2017-10-26T01:46:50.592Z,5.10
2017-10-26T01:49:17.510Z,5.93
2017-10-26T01:51:43.720Z,5.00
2017-10-26T01:54:09.869Z,5.77
2017-10-26T01:56:36.078Z,6.10
2017-10-26T01:59:02.289Z,6.17
2017-10-26T02:01:29.202Z,6.00
2017-10-26T02:03:56.131Z,6.60
2017-10-26T02:06:22.313Z,5.73
2017-10-26T02:08:48.549Z,7.20
2017-10-26T02:11:15.492Z,6.23
2017-10-26T02:13:42.400Z,5.53
2017-10-26T02:16:09.325Z,6.63
2017-10-26T02:18:36.393Z,6.80
2017-10-26T02:21:02.565Z,7.50
2017-10-26T02:23:29.552Z,6.53
2017-10-26T02:25:55.748Z,6.97
2017-10-26T02:31:34.425Z,7.20
2017-10-26T02:34:00.608Z,6.63
2017-10-26T02:36:26.805Z,6.77
2017-10-26T02:38:53.009Z,7.23
2017-10-26T02:41:19.257Z,7.10
2017-10-26T02:43:45.435Z,6.77
2017-10-26T02:46:11.619Z,6.10
2017-10-26T02:48:37.805Z,6.60
2017-10-26T02:51:04.744Z,7.20
2017-10-26T02:53:31.041Z,8.03
2017-10-26T02:55:57.228Z,7.30
2017-10-26T02:58:23.398Z,7.90
2017-10-26T03:00:49.609Z,8.53
2017-10-26T03:03:16.566Z,8.60
2017-10-26T03:05:42.781Z,8.87
2017-10-26T03:08:09.727Z,7.40
2017-10-26T03:10:35.901Z,7.63
2017-10-26T03:13:02.077Z,7.90
2017-10-26T03:15:28.299Z,7.67
2017-10-26T03:17:54.484Z,8.30
2017-10-26T03:20:21.403Z,8.40
2017-10-26T03:22:47.629Z,8.87
2017-10-26T03:25:14.087Z,9.07
2017-10-26T03:27:41.036Z,8.67
2017-10-26T03:30:07.255Z,8.30
2017-10-26T03:32:33.409Z,7.20
2017-10-26T03:34:59.621Z,9.70
2017-10-26T03:37:25.800Z,7.47
2017-10-26T03:39:52.727Z,7.10
2017-10-26T03:42:19.686Z,9.43
2017-10-26T03:44:45.953Z,8.53
2017-10-26T03:47:12.156Z,8.13
2017-10-26T03:49:39.078Z,9.43
2017-10-26T03:52:06.741Z,9.17
2017-10-26T03:54:32.908Z,8.27
2017-10-26T03:56:59.813Z,8.60
2017-10-26T03:59:25.984Z,8.33
2017-10-26T04:01:52.169Z,8.90
2017-10-26T04:04:18.388Z,8.90
2017-10-26T04:06:44.604Z,8.50
2017-10-26T04:09:11.497Z,9.07
2017-10-26T04:11:37.698Z,8.63
2017-10-26T04:14:03.864Z,8.17
2017-10-26T04:16:30.036Z,8.83
2017-10-26T04:18:56.195Z,8.10
2017-10-26T04:21:22.389Z,10.80
2017-10-26T04:23:49.313Z,7.20
2017-10-26T04:26:15.853Z,8.63
2017-10-26T04:28:42.021Z,7.40
2017-10-26T04:31:08.195Z,9.73
2017-10-26T04:33:34.380Z,9.60
2017-10-26T04:36:00.638Z,9.77
2017-10-26T04:38:26.825Z,9.20
2017-10-26T04:40:53.048Z,9.63
2017-10-26T04:43:19.303Z,11.27
2017-10-26T04:45:46.273Z,9.80
2017-10-26T04:48:12.475Z,9.60
2017-10-26T04:50:38.661Z,9.90
2017-10-26T04:53:05.594Z,10.13
2017-10-26T04:55:31.870Z,9.00
2017-10-26T04:57:58.097Z,9.80
2017-10-26T05:00:24.252Z,9.93
2017-10-26T05:02:50.427Z,9.97
2017-10-26T05:05:16.608Z,9.17
2017-10-26T05:07:42.815Z,9.73
2017-10-26T05:10:09.744Z,9.93
2017-10-26T05:12:36.680Z,10.27
2017-10-26T05:15:02.893Z,9.03
2017-10-26T05:17:29.048Z,9.07
2017-10-26T05:19:55.248Z,10.67
2017-10-26T05:22:21.429Z,9.97
2017-10-26T05:24:49.079Z,9.37
2017-10-26T05:27:15.316Z,9.33
2017-10-26T05:29:42.269Z,11.23
2017-10-26T05:32:08.479Z,9.80
2017-10-26T05:34:34.695Z,9.80
2017-10-26T05:37:00.908Z,9.50
2017-10-26T05:39:27.833Z,10.17
2017-10-26T05:41:54.058Z,10.07
2017-10-26T05:44:20.236Z,9.50
2017-10-26T05:46:46.426Z,10.00
2017-10-26T05:49:12.614Z,10.00
2017-10-26T05:51:38.775Z,10.40
2017-10-26T05:54:04.956Z,9.87
2017-10-26T05:56:31.156Z,10.40
2017-10-26T05:58:57.317Z,10.40
2017-10-26T06:01:23.533Z,11.87
2017-10-26T06:03:50.488Z,10.97
2017-10-26T06:06:16.649Z,9.80
2017-10-26T06:08:43.566Z,9.90
2017-10-26T06:11:09.769Z,9.63
2017-10-26T06:13:35.949Z,10.20
2017-10-26T06:16:02.858Z,9.53
2017-10-26T06:18:29.042Z,10.57
2017-10-26T06:20:55.957Z,10.60
2017-10-26T06:23:22.113Z,9.60
2017-10-26T06:25:48.321Z,11.63
2017-10-26T06:28:14.573Z,11.50
2017-10-26T06:30:40.818Z,11.27
2017-10-26T06:33:07.784Z,11.90
2017-10-26T06:35:34.707Z,12.10
2017-10-26T06:38:00.910Z,10.23
2017-10-26T06:40:27.097Z,11.57
2017-10-26T06:43:01.071Z,11.30
2017-10-26T06:45:27.275Z,11.93
2017-10-26T06:47:53.484Z,12.20
2017-10-26T06:50:19.756Z,14.00
2017-10-26T06:52:46.001Z,12.60
2017-10-26T06:55:12.193Z,12.30
2017-10-26T06:57:38.397Z,12.63
2017-10-26T07:00:04.605Z,12.50
2017-10-26T07:02:30.755Z,13.77
2017-10-26T07:04:57.697Z,13.43
2017-10-26T07:07:23.984Z,13.63
2017-10-26T07:09:50.152Z,13.70
2017-10-26T07:12:16.343Z,14.50
2017-10-26T07:14:42.524Z,13.17
2017-10-26T07:17:08.681Z,14.57
2017-10-26T07:19:34.870Z,13.93
2017-10-26T07:22:01.066Z,14.43
2017-10-26T07:24:27.297Z,13.27
2017-10-26T07:26:53.515Z,15.57
2017-10-26T07:29:20.526Z,15.00
2017-10-26T07:31:46.721Z,15.70
2017-10-26T07:34:13.637Z,14.20
2017-10-26T07:36:39.805Z,15.40
2017-10-26T07:39:06.716Z,16.27
2017-10-26T07:41:32.894Z,15.83
2017-10-26T07:43:59.839Z,17.23
2017-10-26T07:46:26.001Z,16.27
2017-10-26T07:48:52.196Z,16.87
2017-10-26T07:51:18.393Z,17.50
2017-10-26T07:53:44.565Z,15.57
2017-10-26T07:56:11.478Z,18.20
2017-10-26T07:58:37.673Z,18.93
2017-10-26T08:01:03.846Z,17.90
2017-10-26T08:03:30.055Z,20.07
2017-10-26T08:05:56.288Z,21.07
2017-10-26T08:08:22.466Z,21.23
2017-10-26T08:10:48.798Z,22.77
2017-10-26T08:13:15.797Z,23.10
2017-10-26T08:15:41.961Z,25.00
2017-10-26T08:18:08.913Z,24.07
2017-10-26T08:20:35.124Z,23.70
2017-10-26T08:23:01.289Z,26.90
2017-10-26T08:25:27.497Z,26.50
2017-10-26T08:27:53.710Z,26.03
2017-10-26T08:30:19.972Z,28.20
2017-10-26T08:32:46.153Z,30.77
2017-10-26T08:35:12.317Z,33.07
2017-10-26T08:37:38.513Z,31.40
2017-10-26T08:40:04.681Z,30.50
2017-10-26T08:42:30.913Z,30.70
2017-10-26T08:44:57.848Z,30.37
2017-10-26T08:47:24.033Z,32.57
2017-10-26T08:49:50.224Z,35.27
2017-10-26T08:52:17.156Z,32.97
2017-10-26T08:54:43.333Z,35.43
2017-10-26T08:57:09.541Z,36.10
2017-10-26T08:59:36.448Z,33.57
2017-10-26T09:02:02.617Z,35.10
2017-10-26T09:04:29.550Z,36.00
2017-10-26T09:06:55.731Z,35.33
2017-10-26T09:09:21.886Z,35.83
2017-10-26T09:11:48.069Z,37.10
2017-10-26T09:14:21.902Z,37.20
2017-10-26T09:16:48.122Z,41.10
2017-10-26T09:19:14.287Z,37.70
2017-10-26T09:21:40.465Z,39.40
2017-10-26T09:24:06.660Z,37.27
2017-10-26T09:26:32.889Z,36.10
2017-10-26T09:28:59.057Z,36.23
2017-10-26T09:31:25.395Z,36.53
2017-10-26T09:33:53.060Z,36.37
2017-10-26T09:36:19.251Z,38.53
2017-10-26T09:38:45.449Z,37.43
2017-10-26T09:41:11.685Z,36.00
2017-10-26T09:43:38.637Z,37.33
2017-10-26T09:46:05.582Z,34.20
2017-10-26T09:48:32.494Z,38.67
2017-10-26T09:50:58.658Z,36.13
2017-10-26T09:53:25.602Z,36.10
2017-10-26T09:55:52.529Z,35.30
2017-10-26T09:58:18.707Z,34.60
2017-10-26T10:00:45.640Z,34.57
2017-10-26T10:03:11.805Z,34.40
2017-10-26T10:05:37.976Z,33.13
2017-10-26T10:08:04.216Z,36.33
2017-10-26T10:10:30.405Z,36.57
2017-10-26T10:12:56.568Z,35.20
2017-10-26T10:15:22.801Z,35.60
2017-10-26T10:17:48.973Z,33.87
2017-10-26T10:20:15.909Z,37.93
2017-10-26T10:22:42.140Z,34.47
2017-10-26T10:25:08.313Z,36.00
2017-10-26T10:27:35.223Z,34.50
2017-10-26T10:30:01.395Z,35.90
2017-10-26T10:32:28.404Z,34.57
2017-10-26T10:34:54.608Z,32.47
2017-10-26T10:37:20.829Z,32.60
2017-10-26T10:39:47.751Z,32.10
2017-10-26T10:42:13.928Z,31.77
2017-10-26T10:44:40.151Z,34.03
2017-10-26T10:47:06.373Z,38.17
2017-10-26T10:49:32.558Z,33.20
2017-10-26T10:51:58.761Z,30.53
2017-10-26T10:54:24.924Z,30.70
2017-10-26T10:56:51.081Z,32.63
2017-10-26T10:59:24.821Z,32.87
2017-10-26T11:01:51.027Z,29.50
2017-10-26T11:04:17.967Z,31.03
2017-10-26T11:06:44.890Z,30.13
2017-10-26T11:09:11.055Z,31.90
2017-10-26T11:11:37.229Z,31.17
2017-10-26T11:14:03.428Z,29.90
2017-10-26T11:16:29.629Z,29.10
2017-10-26T11:18:55.786Z,32.80
2017-10-26T11:21:23.500Z,29.87
2017-10-26T11:23:49.693Z,29.80
2017-10-26T11:26:16.617Z,31.00
2017-10-26T11:28:42.831Z,29.63
2017-10-26T11:31:08.994Z,28.50
2017-10-26T11:33:36.885Z,27.23
2017-10-26T11:36:03.121Z,29.80
2017-10-26T11:38:30.057Z,27.97
2017-10-26T11:40:56.229Z,26.77
2017-10-26T11:43:22.410Z,25.60
2017-10-26T11:45:48.577Z,24.63
2017-10-26T11:48:15.592Z,25.73
2017-10-26T11:50:41.775Z,23.07
2017-10-26T11:53:07.978Z,23.30
2017-10-26T11:55:34.186Z,22.83
2017-10-26T11:58:00.404Z,25.93
2017-10-26T12:00:26.565Z,23.60
2017-10-26T12:02:53.523Z,20.17
2017-10-26T12:05:19.727Z,20.67
2017-10-26T12:07:45.902Z,21.73
2017-10-26T12:10:12.858Z,20.47
2017-10-26T12:12:39.065Z,19.07
2017-10-26T12:15:05.263Z,17.83
2017-10-26T12:17:32.179Z,16.50
2017-10-26T12:19:58.360Z,16.17
2017-10-26T12:22:24.577Z,14.53
2017-10-26T12:24:50.753Z,14.17
2017-10-26T12:27:16.965Z,12.87
2017-10-26T12:29:43.146Z,13.27
2017-10-26T12:32:10.065Z,13.77
2017-10-26T12:34:36.317Z,12.93
2017-10-26T12:37:02.503Z,13.87
2017-10-26T12:39:28.698Z,13.27
2017-10-26T12:41:54.928Z,12.50
2017-10-26T12:44:21.089Z,13.53
2017-10-26T12:46:48.013Z,12.77
2017-10-26T12:49:14.189Z,11.77
2017-10-26T12:51:40.379Z,11.57
2017-10-26T12:54:06.565Z,12.70
2017-10-26T12:56:32.738Z,11.13
2017-10-26T12:58:58.911Z,11.00
2017-10-26T13:01:25.093Z,10.97
2017-10-26T13:03:52.757Z,10.63
2017-10-26T13:06:19.683Z,10.10
2017-10-26T13:08:45.921Z,11.40
2017-10-26T13:11:12.129Z,10.97
2017-10-26T13:13:38.325Z,11.83
2017-10-26T13:16:04.497Z,11.33
2017-10-26T13:18:30.689Z,13.07
2017-10-26T13:20:56.855Z,11.23
2017-10-26T13:23:23.825Z,11.93
2017-10-26T13:25:50.021Z,14.33
2017-10-26T13:28:16.940Z,13.80
2017-10-26T13:30:43.117Z,13.97
2017-10-26T13:33:10.045Z,14.40
2017-10-26T13:35:39.396Z,14.20
2017-10-26T13:38:05.585Z,12.83
2017-10-26T13:40:33.249Z,14.87
2017-10-26T13:42:59.420Z,12.40
2017-10-26T13:45:25.604Z,12.93
2017-10-26T13:47:51.850Z,12.80
2017-10-26T13:50:18.777Z,13.10
2017-10-26T13:52:44.946Z,14.07
2017-10-26T13:55:11.135Z,12.73
2017-10-26T13:57:37.317Z,14.07
2017-10-26T14:00:04.222Z,11.73
2017-10-26T14:02:30.393Z,13.20
2017-10-26T14:04:57.322Z,14.47
2017-10-26T14:07:23.501Z,11.97
2017-10-26T14:09:50.406Z,12.37
2017-10-26T14:12:16.568Z,12.33
2017-10-26T14:14:42.744Z,11.27
2017-10-26T14:17:08.933Z,11.30
2017-10-26T14:19:35.105Z,11.70
2017-10-26T14:22:01.291Z,12.40
2017-10-26T14:24:28.222Z,10.77
2017-10-26T14:26:54.371Z,10.83
2017-10-26T14:29:20.552Z,10.83
2017-10-26T14:31:46.781Z,12.30
2017-10-26T14:34:12.961Z,10.50
2017-10-26T14:36:39.205Z,11.33
2017-10-26T14:39:05.405Z,11.10
2017-10-26T14:41:31.588Z,10.17
2017-10-26T14:43:58.494Z,10.87
2017-10-26T14:46:24.685Z,10.10
2017-10-26T14:48:51.601Z,11.70
2017-10-26T14:51:17.825Z,10.20
2017-10-26T14:53:44.007Z,11.60
2017-10-26T14:56:10.935Z,9.83
2017-10-26T14:58:37.134Z,9.70
2017-10-26T15:01:03.328Z,10.17
2017-10-26T15:03:30.228Z,9.87
2017-10-26T15:05:56.388Z,9.60
2017-10-26T15:08:22.655Z,9.10
2017-10-26T15:10:48.869Z,9.60
2017-10-26T15:13:15.131Z,8.73
2017-10-26T15:15:41.345Z,9.77
2017-10-26T15:18:07.549Z,7.80
2017-10-26T15:20:33.721Z,7.00
2017-10-26T15:22:59.947Z,7.37
2017-10-26T15:25:26.169Z,7.03
2017-10-26T15:27:53.121Z,6.70
2017-10-26T15:30:19.438Z,7.03
2017-10-26T15:32:45.680Z,6.77
2017-10-26T15:35:12.636Z,5.30
2017-10-26T15:37:39.801Z,6.87
2017-10-26T15:40:06.720Z,6.53
2017-10-26T15:42:32.907Z,5.70
2017-10-26T15:44:59.137Z,5.90
2017-10-26T15:47:25.377Z,5.40
2017-10-26T15:49:51.536Z,5.87
2017-10-26T15:52:17.771Z,5.67
2017-10-26T15:54:43.988Z,7.73
2017-10-26T15:57:10.190Z,5.90
2017-10-26T15:59:36.421Z,6.20
2017-10-26T16:02:03.337Z,5.00
2017-10-26T16:04:29.532Z,6.47
2017-10-26T16:06:55.713Z,5.20
2017-10-26T16:09:22.644Z,5.67
2017-10-26T16:11:48.853Z,5.87
2017-10-26T16:14:15.082Z,5.73
2017-10-26T16:16:41.266Z,6.37
2017-10-26T16:19:07.441Z,6.47
2017-10-26T16:21:33.655Z,6.13
2017-10-26T16:24:00.558Z,6.23
2017-10-26T16:26:26.762Z,6.13
2017-10-26T16:28:57.366Z,5.27
2017-10-26T16:31:29.960Z,5.60
2017-10-26T16:33:57.681Z,5.20
2017-10-26T16:36:23.874Z,5.83
2017-10-26T16:38:50.375Z,7.10
2017-10-26T16:41:16.966Z,5.43
2017-10-26T16:43:43.296Z,5.50
2017-10-26T16:46:09.482Z,5.20
2017-10-26T16:48:35.745Z,9.50
2017-10-26T16:51:02.842Z,5.47
2017-10-26T16:53:29.240Z,5.40
2017-10-26T16:55:55.467Z,6.10
2017-10-26T16:58:21.720Z,5.77
2017-10-26T17:00:47.898Z,5.93
2017-10-26T17:03:14.091Z,5.57
2017-10-26T17:05:40.319Z,6.10
2017-10-26T17:08:06.541Z,4.20
2017-10-26T17:10:32.725Z,4.30
2017-10-26T17:12:58.922Z,4.33
2017-10-26T17:15:25.130Z,4.70
2017-10-26T17:17:52.066Z,4.70
2017-10-26T17:20:18.226Z,4.60
2017-10-26T17:22:45.144Z,4.60
2017-10-26T17:25:12.121Z,4.00
2017-10-26T17:27:39.773Z,4.43
2017-10-26T17:30:06.709Z,4.03
2017-10-26T17:32:33.049Z,6.73
2017-10-26T17:34:59.222Z,5.00
2017-10-26T17:37:26.221Z,6.67
2017-10-26T17:39:54.041Z,5.13
2017-10-26T17:42:20.213Z,5.60
2017-10-26T17:44:46.587Z,4.53
2017-10-26T17:47:12.834Z,4.93
2017-10-26T17:49:38.988Z,5.20
2017-10-26T17:52:05.906Z,5.23
2017-10-26T17:54:33.054Z,5.60
2017-10-26T17:57:00.698Z,6.00
2017-10-26T17:59:26.893Z,5.23
2017-10-26T18:01:53.144Z,6.10
2017-10-26T18:04:19.313Z,5.47
2017-10-26T18:06:45.567Z,5.10
2017-10-26T18:09:13.228Z,5.07
2017-10-26T18:11:39.429Z,5.50
2017-10-26T18:14:05.610Z,5.80
2017-10-26T18:16:31.896Z,7.03
2017-10-26T18:18:58.188Z,5.50
2017-10-26T18:21:25.139Z,5.73
2017-10-26T18:23:51.346Z,6.90
2017-10-26T18:26:17.531Z,5.60
2017-10-26T18:28:43.807Z,6.23
2017-10-26T18:31:10.021Z,4.70
2017-10-26T18:33:36.205Z,5.03
2017-10-26T18:36:03.153Z,5.27
2017-10-26T18:38:30.150Z,6.37
2017-10-26T18:40:56.597Z,5.77
2017-10-26T18:43:22.835Z,6.20
2017-10-26T18:45:49.165Z,6.07
2017-10-26T18:48:15.436Z,7.40
2017-10-26T18:50:41.891Z,6.10
2017-10-26T18:53:08.843Z,7.07
2017-10-26T18:55:35.869Z,6.53
2017-10-26T18:58:02.127Z,5.70
2017-10-26T19:00:29.156Z,6.53
2017-10-26T19:02:55.370Z,6.60
2017-10-26T19:05:21.576Z,8.63
2017-10-26T19:07:47.808Z,6.77
2017-10-26T19:10:14.719Z,6.53
2017-10-26T19:12:40.924Z,7.47
2017-10-26T19:15:07.145Z,6.37
2017-10-26T19:17:33.371Z,6.27
2017-10-26T19:20:00.310Z,6.10
2017-10-26T19:22:26.565Z,5.80
2017-10-26T19:24:52.849Z,6.90
2017-10-26T19:27:19.078Z,6.27
2017-10-26T19:29:46.052Z,6.23
2017-10-26T19:32:12.965Z,6.10
2017-10-26T19:34:39.150Z,6.47
2017-10-26T19:37:05.392Z,5.50
2017-10-26T19:39:31.626Z,5.27
2017-10-26T19:41:57.888Z,5.77
2017-10-26T19:44:24.104Z,4.80
2017-10-26T19:46:50.281Z,6.07
2017-10-26T19:49:16.445Z,6.90
2017-10-26T19:51:42.672Z,5.67
2017-10-26T19:54:08.965Z,5.77
2017-10-26T19:56:35.148Z,6.10
2017-10-26T19:59:02.148Z,4.67
2017-10-26T20:01:29.130Z,6.47
2017-10-26T20:03:55.309Z,6.23
2017-10-26T20:06:21.514Z,5.40
2017-10-26T20:08:47.660Z,5.27
2017-10-26T20:11:13.806Z,6.40
2017-10-26T20:13:40.767Z,5.23
2017-10-26T20:16:06.938Z,6.63
2017-10-26T20:18:34.606Z,5.37
2017-10-26T20:21:00.833Z,5.47
2017-10-26T20:23:27.010Z,6.37
2017-10-26T20:25:53.948Z,6.83
2017-10-26T20:28:20.141Z,6.77
2017-10-26T20:30:46.321Z,5.50
2017-10-26T20:33:13.228Z,6.17
2017-10-26T20:35:39.424Z,6.30
2017-10-26T20:38:06.318Z,6.63
2017-10-26T20:40:32.488Z,7.77
2017-10-26T20:42:58.738Z,5.70
2017-10-26T20:45:25.650Z,4.90
2017-10-26T20:47:51.829Z,4.73
2017-10-26T20:50:24.329Z,5.00
2017-10-26T20:52:56.697Z,5.03
2017-10-26T20:55:28.970Z,5.13
2017-10-26T20:58:01.274Z,4.07
2017-10-26T21:00:34.289Z,5.23
2017-10-26T21:03:07.338Z,5.40
2017-10-26T21:05:39.596Z,8.17
2017-10-26T21:08:05.798Z,4.87
2017-10-26T21:10:38.933Z,4.83
2017-10-26T21:13:11.345Z,6.10
2017-10-26T21:15:38.285Z,5.43
2017-10-26T21:18:05.360Z,3.87
2017-10-26T21:20:31.597Z,4.93
2017-10-26T21:22:58.497Z,5.17
2017-10-26T21:25:24.690Z,4.70
2017-10-26T21:27:50.876Z,5.70
2017-10-26T21:30:17.063Z,5.00
2017-10-26T21:32:43.236Z,4.80
2017-10-26T21:35:09.426Z,4.90
2017-10-26T21:37:35.630Z,5.60
2017-10-26T21:40:01.813Z,4.07
2017-10-26T21:42:27.994Z,5.50
2017-10-26T21:44:54.230Z,5.40
2017-10-26T21:47:20.414Z,5.30
2017-10-26T21:49:46.631Z,4.70
2017-10-26T21:52:12.809Z,5.23
2017-10-26T21:57:12.009Z,5.20
2017-10-26T21:59:38.188Z,4.57
2017-10-26T22:02:04.380Z,5.53
2017-10-26T22:04:30.607Z,5.97
2017-10-26T22:06:56.781Z,4.80
2017-10-26T22:09:22.950Z,5.30
2017-10-26T22:11:49.848Z,6.20
2017-10-26T22:14:16.032Z,5.20
2017-10-26T22:16:42.253Z,6.10
2017-10-26T22:19:08.424Z,5.57
2017-10-26T22:21:34.603Z,5.40
2017-10-26T22:24:00.765Z,5.47
2017-10-26T22:26:27.673Z,4.60
2017-10-26T22:28:53.857Z,5.30
2017-10-26T22:31:20.769Z,4.93
2017-10-26T22:33:46.952Z,5.17
2017-10-26T22:36:13.146Z,5.20
2017-10-26T22:38:39.289Z,6.13
2017-10-26T22:41:05.497Z,4.97
2017-10-26T22:43:31.704Z,5.20
2017-10-26T22:45:58.126Z,5.20
2017-10-26T22:48:24.328Z,5.33
2017-10-26T22:50:50.491Z,5.03
2017-10-26T22:53:16.657Z,7.13
2017-10-26T22:55:42.824Z,15.03
2017-10-26T22:58:09.741Z,5.97
2017-10-26T23:00:35.909Z,6.00
2017-10-26T23:03:02.108Z,6.87
2017-10-26T23:05:28.295Z,4.20
2017-10-26T23:07:55.182Z,4.13
2017-10-26T23:10:21.344Z,4.60
2017-10-26T23:12:47.502Z,4.40
2017-10-26T23:15:14.392Z,5.53
2017-10-26T23:17:40.563Z,4.97
2017-10-26T23:20:06.741Z,4.50
2017-10-26T23:22:32.893Z,5.20
2017-10-26T23:24:59.073Z,5.67
2017-10-26T23:27:25.970Z,5.17
2017-10-26T23:29:52.129Z,6.20
2017-10-26T23:32:18.303Z,5.30
2017-10-26T23:34:45.223Z,6.63
2017-10-26T23:37:11.361Z,7.00
2017-10-26T23:39:37.532Z,6.97
2017-10-26T23:42:03.696Z,6.70
2017-10-26T23:44:29.884Z,5.60
2017-10-26T23:46:57.112Z,4.70
2017-10-26T23:49:23.260Z,5.80
2017-10-26T23:51:49.453Z,4.83
2017-10-26T23:54:15.630Z,8.67
2017-10-26T23:56:41.828Z,7.63
2017-10-26T23:59:07.988Z,20.00
